sensor_id;sensor_type;location;lat;lon;timestamp;P1;durP1;ratioP1;P2;durP2;ratioP2
69951;SDS011;60406;48.408;13.392;2023-04-06T01:09:27;13.20;;;8.15;;
69951;SDS011;60406;48.408;13.392;2023-04-06T01:14:28;9.38;;;7.80;;
69951;SDS011;60406;48.408;13.392;2023-04-06T01:19:29;11.40;;;8.30;;
69951;SDS011;60406;48.408;13.392;2023-04-06T01:24:30;11.07;;;8.25;;
69951;SDS011;60406;48.408;13.392;2023-04-06T01:29:31;13.32;;;8.90;;
69951;SDS011;60406;48.408;13.392;2023-04-06T01:34:32;12.35;;;8.45;;
69951;SDS011;60406;48.408;13.392;2023-04-06T01:39:33;12.18;;;8.50;;
69951;SDS011;60406;48.408;13.392;2023-04-06T01:44:34;14.20;;;8.60;;
69951;SDS011;60406;48.408;13.392;2023-04-06T01:49:35;16.38;;;9.73;;
69951;SDS011;60406;48.408;13.392;2023-04-06T01:54:36;10.93;;;8.23;;
69951;SDS011;60406;48.408;13.392;2023-04-06T01:59:37;14.43;;;9.82;;
69951;SDS011;60406;48.408;13.392;2023-04-06T02:04:37;16.45;;;9.95;;
69951;SDS011;60406;48.408;13.392;2023-04-06T02:09:38;15.68;;;10.82;;
69951;SDS011;60406;48.408;13.392;2023-04-06T02:14:39;17.17;;;11.50;;
69951;SDS011;60406;48.408;13.392;2023-04-06T02:19:40;13.70;;;10.23;;
69951;SDS011;60406;48.408;13.392;2023-04-06T02:24:41;20.55;;;10.40;;
69951;SDS011;60406;48.408;13.392;2023-04-06T02:29:42;15.48;;;10.82;;
69951;SDS011;60406;48.408;13.392;2023-04-06T02:34:43;13.93;;;10.20;;
69951;SDS011;60406;48.408;13.392;2023-04-06T02:39:43;16.95;;;10.95;;
69951;SDS011;60406;48.408;13.392;2023-04-06T02:44:45;14.68;;;10.70;;
69951;SDS011;60406;48.408;13.392;2023-04-06T02:49:46;14.98;;;11.25;;
69951;SDS011;60406;48.408;13.392;2023-04-06T02:54:46;16.42;;;10.02;;
69951;SDS011;60406;48.408;13.392;2023-04-06T02:59:47;13.80;;;10.68;;
69951;SDS011;60406;48.408;13.392;2023-04-06T03:04:48;15.40;;;11.13;;
69951;SDS011;60406;48.408;13.392;2023-04-06T03:09:49;11.98;;;10.18;;
69951;SDS011;60406;48.408;13.392;2023-04-06T03:14:50;15.77;;;10.25;;
69951;SDS011;60406;48.408;13.392;2023-04-06T03:19:51;17.38;;;11.05;;
69951;SDS011;60406;48.408;13.392;2023-04-06T03:24:52;15.93;;;10.20;;
69951;SDS011;60406;48.408;13.392;2023-04-06T03:29:52;15.18;;;9.68;;
69951;SDS011;60406;48.408;13.392;2023-04-06T03:34:53;19.20;;;11.07;;
69951;SDS011;60406;48.408;13.392;2023-04-06T03:39:54;17.20;;;11.32;;
69951;SDS011;60406;48.408;13.392;2023-04-06T03:44:55;17.98;;;10.32;;
69951;SDS011;60406;48.408;13.392;2023-04-06T03:49:56;16.15;;;10.27;;
69951;SDS011;60406;48.408;13.392;2023-04-06T03:54:57;17.60;;;11.20;;
69951;SDS011;60406;48.408;13.392;2023-04-06T03:59:58;16.08;;;10.32;;
69951;SDS011;60406;48.408;13.392;2023-04-06T04:04:58;19.10;;;11.43;;
69951;SDS011;60406;48.408;13.392;2023-04-06T04:09:59;14.32;;;10.18;;
69951;SDS011;60406;48.408;13.392;2023-04-06T04:15:00;20.45;;;11.20;;
69951;SDS011;60406;48.408;13.392;2023-04-06T04:20:01;17.80;;;11.13;;
69951;SDS011;60406;48.408;13.392;2023-04-06T04:25:02;18.40;;;11.15;;
69951;SDS011;60406;48.408;13.392;2023-04-06T04:30:03;18.70;;;11.52;;
69951;SDS011;60406;48.408;13.392;2023-04-06T04:35:05;17.00;;;13.13;;
69951;SDS011;60406;48.408;13.392;2023-04-06T04:40:07;17.13;;;11.43;;
69951;SDS011;60406;48.408;13.392;2023-04-06T04:45:08;18.55;;;11.55;;
69951;SDS011;60406;48.408;13.392;2023-04-06T04:50:09;15.68;;;10.32;;
69951;SDS011;60406;48.408;13.392;2023-04-06T04:55:10;18.70;;;10.77;;
69951;SDS011;60406;48.408;13.392;2023-04-06T05:00:11;16.60;;;11.45;;
69951;SDS011;60406;48.408;13.392;2023-04-06T05:05:12;20.55;;;13.07;;
69951;SDS011;60406;48.408;13.392;2023-04-06T05:10:13;20.27;;;11.20;;
69951;SDS011;60406;48.408;13.392;2023-04-06T05:15:14;21.27;;;10.65;;
69951;SDS011;60406;48.408;13.392;2023-04-06T05:20:15;24.17;;;11.90;;
69951;SDS011;60406;48.408;13.392;2023-04-06T05:25:16;22.25;;;12.50;;
69951;SDS011;60406;48.408;13.392;2023-04-06T05:30:17;15.35;;;11.10;;
69951;SDS011;60406;48.408;13.392;2023-04-06T05:35:18;27.77;;;16.45;;
69951;SDS011;60406;48.408;13.392;2023-04-06T05:40:18;20.17;;;13.35;;
69951;SDS011;60406;48.408;13.392;2023-04-06T05:45:19;19.13;;;13.80;;
69951;SDS011;60406;48.408;13.392;2023-04-06T05:50:20;22.20;;;13.35;;
69951;SDS011;60406;48.408;13.392;2023-04-06T05:55:21;27.10;;;13.55;;
69951;SDS011;60406;48.408;13.392;2023-04-06T06:00:22;21.80;;;14.63;;
69951;SDS011;60406;48.408;13.392;2023-04-06T06:05:23;25.58;;;15.32;;
69951;SDS011;60406;48.408;13.392;2023-04-06T06:10:24;21.17;;;13.70;;
69951;SDS011;60406;48.408;13.392;2023-04-06T06:15:25;25.02;;;12.68;;
69951;SDS011;60406;48.408;13.392;2023-04-06T06:20:25;17.50;;;11.68;;
69951;SDS011;60406;48.408;13.392;2023-04-06T06:25:26;18.52;;;12.00;;
69951;SDS011;60406;48.408;13.392;2023-04-06T06:30:27;15.85;;;10.75;;
69951;SDS011;60406;48.408;13.392;2023-04-06T06:35:28;15.18;;;10.68;;
69951;SDS011;60406;48.408;13.392;2023-04-06T06:40:29;14.15;;;9.48;;
69951;SDS011;60406;48.408;13.392;2023-04-06T06:45:30;15.60;;;10.07;;
69951;SDS011;60406;48.408;13.392;2023-04-06T06:50:31;20.05;;;13.40;;
69951;SDS011;60406;48.408;13.392;2023-04-06T06:55:32;13.77;;;10.32;;
69951;SDS011;60406;48.408;13.392;2023-04-06T07:00:32;13.52;;;10.50;;
69951;SDS011;60406;48.408;13.392;2023-04-06T07:05:33;19.17;;;11.77;;
69951;SDS011;60406;48.408;13.392;2023-04-06T07:10:34;17.88;;;11.02;;
69951;SDS011;60406;48.408;13.392;2023-04-06T07:15:35;19.30;;;11.93;;
69951;SDS011;60406;48.408;13.392;2023-04-06T07:20:36;18.63;;;10.57;;
69951;SDS011;60406;48.408;13.392;2023-04-06T07:25:37;16.85;;;9.95;;
69951;SDS011;60406;48.408;13.392;2023-04-06T07:30:38;14.25;;;9.55;;
69951;SDS011;60406;48.408;13.392;2023-04-06T07:35:39;16.30;;;9.43;;
69951;SDS011;60406;48.408;13.392;2023-04-06T07:40:40;14.73;;;7.75;;
69951;SDS011;60406;48.408;13.392;2023-04-06T07:45:40;11.43;;;7.88;;
69951;SDS011;60406;48.408;13.392;2023-04-06T07:50:41;11.35;;;8.13;;
69951;SDS011;60406;48.408;13.392;2023-04-06T07:55:42;13.75;;;8.27;;
69951;SDS011;60406;48.408;13.392;2023-04-06T08:00:43;10.18;;;7.80;;
69951;SDS011;60406;48.408;13.392;2023-04-06T08:05:44;15.38;;;8.23;;
69951;SDS011;60406;48.408;13.392;2023-04-06T08:10:45;17.25;;;9.52;;
69951;SDS011;60406;48.408;13.392;2023-04-06T08:15:46;10.20;;;7.35;;
69951;SDS011;60406;48.408;13.392;2023-04-06T08:20:47;16.83;;;7.05;;
69951;SDS011;60406;48.408;13.392;2023-04-06T08:25:47;9.43;;;6.50;;
69951;SDS011;60406;48.408;13.392;2023-04-06T08:30:48;10.20;;;6.95;;
69951;SDS011;60406;48.408;13.392;2023-04-06T08:35:49;9.93;;;7.78;;
69951;SDS011;60406;48.408;13.392;2023-04-06T08:40:50;13.20;;;8.57;;
69951;SDS011;60406;48.408;13.392;2023-04-06T08:45:51;12.50;;;7.75;;
69951;SDS011;60406;48.408;13.392;2023-04-06T08:50:52;9.60;;;7.03;;
69951;SDS011;60406;48.408;13.392;2023-04-06T08:55:53;10.50;;;7.28;;
69951;SDS011;60406;48.408;13.392;2023-04-06T09:00:54;10.80;;;7.50;;
69951;SDS011;60406;48.408;13.392;2023-04-06T09:05:55;31.10;;;20.92;;
69951;SDS011;60406;48.408;13.392;2023-04-06T09:10:56;12.43;;;8.50;;
69951;SDS011;60406;48.408;13.392;2023-04-06T09:15:58;11.00;;;7.45;;
69951;SDS011;60406;48.408;13.392;2023-04-06T09:21:00;11.07;;;7.60;;
69951;SDS011;60406;48.408;13.392;2023-04-06T09:26:06;9.57;;;6.32;;
69951;SDS011;60406;48.408;13.392;2023-04-06T09:31:11;12.90;;;8.32;;
69951;SDS011;60406;48.408;13.392;2023-04-06T09:36:15;9.18;;;6.68;;
69951;SDS011;60406;48.408;13.392;2023-04-06T09:41:26;9.85;;;6.22;;
69951;SDS011;60406;48.408;13.392;2023-04-06T09:46:28;9.57;;;6.25;;
69951;SDS011;60406;48.408;13.392;2023-04-06T09:51:39;9.40;;;6.47;;
69951;SDS011;60406;48.408;13.392;2023-04-06T10:01:48;10.48;;;6.60;;
69951;SDS011;60406;48.408;13.392;2023-04-06T10:06:50;9.20;;;6.38;;
69951;SDS011;60406;48.408;13.392;2023-04-06T10:11:51;9.02;;;5.95;;
69951;SDS011;60406;48.408;13.392;2023-04-06T10:16:52;10.43;;;6.72;;
69951;SDS011;60406;48.408;13.392;2023-04-06T10:27:08;10.55;;;6.88;;
69951;SDS011;60406;48.408;13.392;2023-04-06T10:32:09;9.05;;;6.57;;
69951;SDS011;60406;48.408;13.392;2023-04-06T10:37:14;10.10;;;7.93;;
69951;SDS011;60406;48.408;13.392;2023-04-06T10:47:16;9.75;;;7.40;;
69951;SDS011;60406;48.408;13.392;2023-04-06T10:52:18;10.57;;;7.60;;
69951;SDS011;60406;48.408;13.392;2023-04-06T10:57:27;11.40;;;7.95;;
69951;SDS011;60406;48.408;13.392;2023-04-06T11:02:28;12.80;;;7.20;;
69951;SDS011;60406;48.408;13.392;2023-04-06T11:07:29;8.48;;;6.85;;
69951;SDS011;60406;48.408;13.392;2023-04-06T11:12:30;9.32;;;7.20;;
69951;SDS011;60406;48.408;13.392;2023-04-06T11:17:35;8.00;;;6.60;;
69951;SDS011;60406;48.408;13.392;2023-04-06T11:22:47;8.45;;;6.55;;
69951;SDS011;60406;48.408;13.392;2023-04-06T11:27:49;9.23;;;7.22;;
69951;SDS011;60406;48.408;13.392;2023-04-06T11:32:50;9.18;;;6.78;;
69951;SDS011;60406;48.408;13.392;2023-04-06T11:37:51;9.20;;;7.07;;
69951;SDS011;60406;48.408;13.392;2023-04-06T11:42:52;10.25;;;7.70;;
69951;SDS011;60406;48.408;13.392;2023-04-06T11:47:57;11.73;;;6.75;;
69951;SDS011;60406;48.408;13.392;2023-04-06T11:52:59;10.27;;;7.60;;
69951;SDS011;60406;48.408;13.392;2023-04-06T11:58:00;8.02;;;6.80;;
69951;SDS011;60406;48.408;13.392;2023-04-06T12:03:01;7.63;;;6.22;;
69951;SDS011;60406;48.408;13.392;2023-04-06T12:08:02;6.45;;;5.85;;
69951;SDS011;60406;48.408;13.392;2023-04-06T12:13:03;6.68;;;5.80;;
69951;SDS011;60406;48.408;13.392;2023-04-06T12:18:04;6.50;;;5.90;;
69951;SDS011;60406;48.408;13.392;2023-04-06T12:23:05;7.95;;;5.47;;
69951;SDS011;60406;48.408;13.392;2023-04-06T12:28:06;8.93;;;5.60;;
69951;SDS011;60406;48.408;13.392;2023-04-06T12:33:07;7.68;;;5.40;;
69951;SDS011;60406;48.408;13.392;2023-04-06T12:38:08;7.53;;;6.40;;
69951;SDS011;60406;48.408;13.392;2023-04-06T12:43:08;7.72;;;6.53;;
69951;SDS011;60406;48.408;13.392;2023-04-06T12:48:09;8.73;;;6.22;;
69951;SDS011;60406;48.408;13.392;2023-04-06T12:53:10;8.20;;;5.88;;
69951;SDS011;60406;48.408;13.392;2023-04-06T12:58:11;6.60;;;6.00;;
69951;SDS011;60406;48.408;13.392;2023-04-06T13:03:12;7.03;;;6.32;;
69951;SDS011;60406;48.408;13.392;2023-04-06T13:08:13;7.70;;;6.50;;
69951;SDS011;60406;48.408;13.392;2023-04-06T13:13:15;7.22;;;5.72;;
69951;SDS011;60406;48.408;13.392;2023-04-06T13:18:15;7.50;;;5.90;;
69951;SDS011;60406;48.408;13.392;2023-04-06T13:23:16;7.55;;;5.40;;
69951;SDS011;60406;48.408;13.392;2023-04-06T13:28:17;6.32;;;5.47;;
69951;SDS011;60406;48.408;13.392;2023-04-06T13:33:18;6.68;;;5.72;;
69951;SDS011;60406;48.408;13.392;2023-04-06T13:38:19;6.80;;;5.15;;
69951;SDS011;60406;48.408;13.392;2023-04-06T13:43:20;6.18;;;4.72;;
69951;SDS011;60406;48.408;13.392;2023-04-06T13:48:21;7.25;;;5.47;;
69951;SDS011;60406;48.408;13.392;2023-04-06T13:53:24;6.88;;;5.13;;
69951;SDS011;60406;48.408;13.392;2023-04-06T13:58:25;6.88;;;4.57;;
69951;SDS011;60406;48.408;13.392;2023-04-06T14:03:26;6.70;;;4.80;;
69951;SDS011;60406;48.408;13.392;2023-04-06T14:08:27;6.65;;;4.88;;
69951;SDS011;60406;48.408;13.392;2023-04-06T14:13:28;6.45;;;4.90;;
69951;SDS011;60406;48.408;13.392;2023-04-06T14:18:29;8.32;;;5.00;;
69951;SDS011;60406;48.408;13.392;2023-04-06T14:23:30;10.05;;;4.93;;
69951;SDS011;60406;48.408;13.392;2023-04-06T14:28:34;8.95;;;5.70;;
69951;SDS011;60406;48.408;13.392;2023-04-06T14:33:35;5.20;;;4.70;;
69951;SDS011;60406;48.408;13.392;2023-04-06T14:38:36;6.07;;;4.95;;
69951;SDS011;60406;48.408;13.392;2023-04-06T14:43:37;6.78;;;4.68;;
69951;SDS011;60406;48.408;13.392;2023-04-06T14:48:38;10.02;;;4.93;;
69951;SDS011;60406;48.408;13.392;2023-04-06T14:53:39;7.47;;;5.97;;
69951;SDS011;60406;48.408;13.392;2023-04-06T14:58:40;10.95;;;4.80;;
69951;SDS011;60406;48.408;13.392;2023-04-06T15:03:41;8.57;;;4.93;;
69951;SDS011;60406;48.408;13.392;2023-04-06T15:08:42;7.38;;;5.20;;
69951;SDS011;60406;48.408;13.392;2023-04-06T15:13:43;7.13;;;5.20;;
69951;SDS011;60406;48.408;13.392;2023-04-06T15:18:44;7.25;;;5.10;;
69951;SDS011;60406;48.408;13.392;2023-04-06T15:23:45;5.10;;;4.60;;
69951;SDS011;60406;48.408;13.392;2023-04-06T15:28:46;9.23;;;5.38;;
69951;SDS011;60406;48.408;13.392;2023-04-06T15:33:46;5.18;;;4.70;;
69951;SDS011;60406;48.408;13.392;2023-04-06T15:38:47;5.70;;;4.97;;
69951;SDS011;60406;48.408;13.392;2023-04-06T15:43:48;12.27;;;6.22;;
69951;SDS011;60406;48.408;13.392;2023-04-06T15:48:49;10.20;;;5.50;;
69951;SDS011;60406;48.408;13.392;2023-04-06T15:53:50;6.20;;;5.57;;
69951;SDS011;60406;48.408;13.392;2023-04-06T15:58:51;7.60;;;6.65;;
69951;SDS011;60406;48.408;13.392;2023-04-06T16:03:52;6.30;;;5.70;;
69951;SDS011;60406;48.408;13.392;2023-04-06T16:08:53;8.32;;;5.72;;
69951;SDS011;60406;48.408;13.392;2023-04-06T16:13:54;6.68;;;6.03;;
69951;SDS011;60406;48.408;13.392;2023-04-06T16:18:55;6.75;;;6.03;;
69951;SDS011;60406;48.408;13.392;2023-04-06T16:23:56;7.55;;;6.63;;
69951;SDS011;60406;48.408;13.392;2023-04-06T16:28:57;7.82;;;6.78;;
69951;SDS011;60406;48.408;13.392;2023-04-06T16:33:58;11.07;;;7.05;;
69951;SDS011;60406;48.408;13.392;2023-04-06T16:38:59;9.05;;;7.03;;
69951;SDS011;60406;48.408;13.392;2023-04-06T16:44:00;10.10;;;6.63;;
69951;SDS011;60406;48.408;13.392;2023-04-06T16:49:02;10.38;;;7.55;;
69951;SDS011;60406;48.408;13.392;2023-04-06T16:54:03;9.70;;;7.30;;
69951;SDS011;60406;48.408;13.392;2023-04-06T16:59:05;7.68;;;6.75;;
69951;SDS011;60406;48.408;13.392;2023-04-06T17:04:07;14.43;;;7.38;;
69951;SDS011;60406;48.408;13.392;2023-04-06T17:09:08;14.02;;;7.90;;
69951;SDS011;60406;48.408;13.392;2023-04-06T17:14:09;11.70;;;8.82;;
69951;SDS011;60406;48.408;13.392;2023-04-06T17:19:10;11.05;;;7.18;;
69951;SDS011;60406;48.408;13.392;2023-04-06T17:24:11;14.52;;;8.57;;
69951;SDS011;60406;48.408;13.392;2023-04-06T17:29:12;11.95;;;8.65;;
69951;SDS011;60406;48.408;13.392;2023-04-06T17:34:13;15.55;;;9.15;;
69951;SDS011;60406;48.408;13.392;2023-04-06T17:39:14;11.45;;;8.50;;
69951;SDS011;60406;48.408;13.392;2023-04-06T17:44:15;16.33;;;10.13;;
69951;SDS011;60406;48.408;13.392;2023-04-06T17:49:15;14.85;;;8.73;;
69951;SDS011;60406;48.408;13.392;2023-04-06T17:54:16;16.83;;;8.32;;
69951;SDS011;60406;48.408;13.392;2023-04-06T17:59:17;16.85;;;8.32;;
69951;SDS011;60406;48.408;13.392;2023-04-06T18:04:18;13.00;;;7.95;;
69951;SDS011;60406;48.408;13.392;2023-04-06T18:09:19;12.68;;;8.95;;
69951;SDS011;60406;48.408;13.392;2023-04-06T18:14:20;11.15;;;8.32;;
69951;SDS011;60406;48.408;13.392;2023-04-06T18:19:21;15.32;;;8.63;;
69951;SDS011;60406;48.408;13.392;2023-04-06T18:24:21;16.45;;;8.35;;
69951;SDS011;60406;48.408;13.392;2023-04-06T18:29:22;13.45;;;9.02;;
69951;SDS011;60406;48.408;13.392;2023-04-06T18:34:23;20.98;;;10.50;;
69951;SDS011;60406;48.408;13.392;2023-04-06T18:39:24;17.13;;;9.60;;
69951;SDS011;60406;48.408;13.392;2023-04-06T18:44:25;14.85;;;11.90;;
69951;SDS011;60406;48.408;13.392;2023-04-06T18:49:26;23.27;;;13.55;;
69951;SDS011;60406;48.408;13.392;2023-04-06T18:54:27;24.02;;;14.88;;
69951;SDS011;60406;48.408;13.392;2023-04-06T18:59:27;20.77;;;13.85;;
69951;SDS011;60406;48.408;13.392;2023-04-06T19:04:28;20.38;;;10.40;;
69951;SDS011;60406;48.408;13.392;2023-04-06T19:09:29;16.35;;;10.88;;
69951;SDS011;60406;48.408;13.392;2023-04-06T19:14:31;13.07;;;9.80;;
69951;SDS011;60406;48.408;13.392;2023-04-06T19:19:32;17.50;;;12.40;;
69951;SDS011;60406;48.408;13.392;2023-04-06T19:24:33;20.73;;;13.35;;
69951;SDS011;60406;48.408;13.392;2023-04-06T19:29:34;60.00;;;34.55;;
69951;SDS011;60406;48.408;13.392;2023-04-06T19:34:36;28.23;;;15.13;;
69951;SDS011;60406;48.408;13.392;2023-04-06T19:39:37;17.77;;;10.88;;
69951;SDS011;60406;48.408;13.392;2023-04-06T19:44:38;17.25;;;10.98;;
69951;SDS011;60406;48.408;13.392;2023-04-06T19:49:39;14.55;;;10.85;;
69951;SDS011;60406;48.408;13.392;2023-04-06T19:54:40;22.23;;;10.88;;
69951;SDS011;60406;48.408;13.392;2023-04-06T19:59:41;14.95;;;11.70;;
69951;SDS011;60406;48.408;13.392;2023-04-06T20:04:42;18.48;;;13.43;;
69951;SDS011;60406;48.408;13.392;2023-04-06T20:09:43;19.25;;;13.50;;
69951;SDS011;60406;48.408;13.392;2023-04-06T20:14:44;56.75;;;36.53;;
69951;SDS011;60406;48.408;13.392;2023-04-06T20:19:45;34.97;;;20.42;;
69951;SDS011;60406;48.408;13.392;2023-04-06T20:24:46;21.98;;;14.40;;
69951;SDS011;60406;48.408;13.392;2023-04-06T20:29:46;28.30;;;14.75;;
69951;SDS011;60406;48.408;13.392;2023-04-06T20:34:48;20.48;;;14.20;;
69951;SDS011;60406;48.408;13.392;2023-04-06T20:39:49;17.92;;;12.73;;
69951;SDS011;60406;48.408;13.392;2023-04-06T20:44:50;25.42;;;15.25;;
69951;SDS011;60406;48.408;13.392;2023-04-06T20:49:50;28.65;;;16.48;;
69951;SDS011;60406;48.408;13.392;2023-04-06T20:54:51;25.27;;;13.45;;
69951;SDS011;60406;48.408;13.392;2023-04-06T20:59:52;32.70;;;15.40;;
69951;SDS011;60406;48.408;13.392;2023-04-06T21:04:53;31.80;;;15.40;;
69951;SDS011;60406;48.408;13.392;2023-04-06T21:09:54;24.50;;;15.25;;
69951;SDS011;60406;48.408;13.392;2023-04-06T21:14:55;24.73;;;14.55;;
69951;SDS011;60406;48.408;13.392;2023-04-06T21:19:56;27.23;;;13.73;;
69951;SDS011;60406;48.408;13.392;2023-04-06T21:24:58;27.85;;;14.68;;
69951;SDS011;60406;48.408;13.392;2023-04-06T21:30:02;26.40;;;15.35;;
69951;SDS011;60406;48.408;13.392;2023-04-06T21:35:03;26.55;;;14.82;;
69951;SDS011;60406;48.408;13.392;2023-04-06T21:40:04;25.42;;;14.95;;
69951;SDS011;60406;48.408;13.392;2023-04-06T21:45:05;35.53;;;18.63;;
69951;SDS011;60406;48.408;13.392;2023-04-06T21:50:08;40.75;;;19.70;;
69951;SDS011;60406;48.408;13.392;2023-04-06T21:55:09;25.38;;;16.33;;
69951;SDS011;60406;48.408;13.392;2023-04-06T22:00:10;27.42;;;15.23;;
69951;SDS011;60406;48.408;13.392;2023-04-06T22:05:12;22.15;;;13.30;;
69951;SDS011;60406;48.408;13.392;2023-04-06T22:10:12;18.25;;;13.50;;
69951;SDS011;60406;48.408;13.392;2023-04-06T22:15:13;23.70;;;14.43;;
69951;SDS011;60406;48.408;13.392;2023-04-06T22:20:15;24.90;;;14.90;;
69951;SDS011;60406;48.408;13.392;2023-04-06T22:25:16;21.77;;;14.82;;
69951;SDS011;60406;48.408;13.392;2023-04-06T22:30:17;22.88;;;15.23;;
69951;SDS011;60406;48.408;13.392;2023-04-06T22:35:20;20.17;;;14.13;;
69951;SDS011;60406;48.408;13.392;2023-04-06T22:40:21;24.50;;;14.20;;
69951;SDS011;60406;48.408;13.392;2023-04-06T22:45:22;21.95;;;14.75;;
69951;SDS011;60406;48.408;13.392;2023-04-06T22:50:23;22.25;;;14.70;;
69951;SDS011;60406;48.408;13.392;2023-04-06T22:55:24;24.85;;;16.15;;
69951;SDS011;60406;48.408;13.392;2023-04-06T23:00:25;18.58;;;13.48;;
69951;SDS011;60406;48.408;13.392;2023-04-06T23:05:26;21.27;;;14.55;;
69951;SDS011;60406;48.408;13.392;2023-04-06T23:10:27;21.35;;;13.30;;
69951;SDS011;60406;48.408;13.392;2023-04-06T23:15:28;17.80;;;13.57;;
69951;SDS011;60406;48.408;13.392;2023-04-06T23:20:28;23.13;;;13.95;;
69951;SDS011;60406;48.408;13.392;2023-04-06T23:25:29;28.35;;;15.07;;
69951;SDS011;60406;48.408;13.392;2023-04-06T23:30:30;22.65;;;14.38;;
69951;SDS011;60406;48.408;13.392;2023-04-06T23:35:31;19.90;;;13.43;;
69951;SDS011;60406;48.408;13.392;2023-04-06T23:40:32;24.02;;;14.20;;
69951;SDS011;60406;48.408;13.392;2023-04-06T23:45:33;22.60;;;14.80;;
69951;SDS011;60406;48.408;13.392;2023-04-06T23:50:34;24.80;;;13.77;;
69951;SDS011;60406;48.408;13.392;2023-04-06T23:55:35;20.08;;;13.40;;
